createdAt,value
2022-08-16T00:03:47.475Z,96639.94
2022-08-16T00:08:52.485Z,96646.75
2022-08-16T00:13:56.106Z,96643.91
2022-08-16T00:19:01.438Z,96651.94
2022-08-16T00:24:06.186Z,96639.94
2022-08-16T00:29:17.464Z,96645.47
2022-08-16T00:34:43.392Z,96641.91
2022-08-16T00:39:57.581Z,96634.09
2022-08-16T00:45:08.092Z,96638.38
2022-08-16T00:50:14.477Z,96644.13
2022-08-16T00:55:23.513Z,96632.44
2022-08-16T01:00:28.937Z,96651.56
2022-08-16T01:05:34.491Z,96644.41
2022-08-16T01:10:38.487Z,96646.97
2022-08-16T01:15:52.594Z,96639.75
2022-08-16T01:21:12.700Z,96640.88
2022-08-16T01:26:35.408Z,96641.75
2022-08-16T01:31:42.743Z,96630.56
2022-08-16T01:36:47.793Z,96631.75
2022-08-16T01:42:07.786Z,96626.25
2022-08-16T01:47:16.554Z,96640.63
2022-08-16T01:52:29.341Z,96638.78
2022-08-16T01:58:01.248Z,96641.47
2022-08-16T02:03:05.168Z,96636.69
2022-08-16T02:08:09.546Z,96635.66
2022-08-16T02:13:34.956Z,96630.75
2022-08-16T02:18:38.948Z,96635.09
2022-08-16T02:23:43.771Z,96628.16
2022-08-16T02:28:48.750Z,96628.28
2022-08-16T02:33:56.313Z,96630.00
2022-08-16T02:39:09.947Z,96642.84
2022-08-16T02:44:15.429Z,96654.50
2022-08-16T02:49:32.311Z,96651.34
2022-08-16T02:54:48.631Z,96648.34
2022-08-16T03:00:03.838Z,96650.31
2022-08-16T03:05:26.513Z,96656.84
2022-08-16T03:10:36.079Z,96658.84
2022-08-16T03:15:45.368Z,96655.56
2022-08-16T03:20:56.553Z,96663.38
2022-08-16T03:26:00.793Z,96662.03
2022-08-16T03:31:07.079Z,96662.19
2022-08-16T03:36:30.190Z,96665.38
2022-08-16T03:41:50.274Z,96654.56
2022-08-16T03:46:58.857Z,96657.72
2022-08-16T03:52:08.782Z,96664.50
2022-08-16T03:57:15.714Z,96667.03
2022-08-16T04:02:31.727Z,96675.16
2022-08-16T04:07:38.602Z,96677.00
2022-08-16T04:12:53.077Z,96682.84
2022-08-16T04:18:01.992Z,96681.66
2022-08-16T04:23:08.299Z,96686.97
2022-08-16T04:28:29.715Z,96702.09
2022-08-16T04:33:50.573Z,96700.91
2022-08-16T04:38:58.799Z,96708.53
2022-08-16T04:44:32.709Z,96695.28
2022-08-16T04:49:43.801Z,96693.69
2022-08-16T04:54:50.627Z,96702.94
2022-08-16T04:59:54.396Z,96709.38
2022-08-16T05:04:59.421Z,96714.28
2022-08-16T05:10:05.341Z,96720.41
2022-08-16T05:15:24.611Z,96719.22
2022-08-16T05:20:38.622Z,96728.22
2022-08-16T05:25:54.163Z,96734.84
2022-08-16T05:30:58.237Z,96737.84
2022-08-16T05:36:14.272Z,96737.88
2022-08-16T05:41:26.829Z,96737.56
2022-08-16T05:46:31.455Z,96740.50
2022-08-16T05:51:57.085Z,96733.09
2022-08-16T05:57:02.039Z,96736.84
2022-08-16T06:02:08.587Z,96741.41
2022-08-16T06:07:24.896Z,96747.38
2022-08-16T06:12:38.254Z,96742.94
2022-08-16T06:17:44.651Z,96743.75
2022-08-16T06:23:04.107Z,96738.47
2022-08-16T06:28:35.658Z,96738.97
2022-08-16T06:38:56.013Z,96755.72
2022-08-16T06:44:20.952Z,96750.16
2022-08-16T06:49:27.321Z,96752.41
2022-08-16T06:54:34.358Z,96757.41
2022-08-16T06:59:48.579Z,96762.97
2022-08-16T07:04:58.227Z,96760.53
2022-08-16T07:10:08.516Z,96756.69
2022-08-16T07:15:17.142Z,96758.31
2022-08-16T07:20:29.840Z,96756.13
2022-08-16T07:25:42.281Z,96754.75
2022-08-16T07:30:48.862Z,96747.88
2022-08-16T07:36:21.719Z,96745.97
2022-08-16T07:41:27.864Z,96738.22
2022-08-16T07:46:38.589Z,96754.41
2022-08-16T07:52:20.534Z,96752.75
2022-08-16T07:57:27.644Z,96747.59
2022-08-16T08:02:32.641Z,96768.44
2022-08-16T08:07:37.682Z,96771.50
2022-08-16T08:12:51.079Z,96775.69
2022-08-16T08:18:01.638Z,96769.34
2022-08-16T08:23:23.049Z,96775.75
2022-08-16T08:28:30.886Z,96777.88
2022-08-16T08:33:47.193Z,96778.50
2022-08-16T08:38:52.501Z,96785.72
2022-08-16T08:43:59.006Z,96791.13
2022-08-16T08:49:03.584Z,96788.44
2022-08-16T08:54:18.605Z,96791.28
2022-08-16T08:59:28.563Z,96792.13
2022-08-16T09:04:34.181Z,96792.84
2022-08-16T09:09:41.275Z,96799.91
2022-08-16T09:14:50.999Z,96794.16
2022-08-16T09:20:02.850Z,96782.22
2022-08-16T09:25:11.385Z,96797.22
2022-08-16T09:30:33.286Z,96789.97
2022-08-16T09:35:39.466Z,96781.34
2022-08-16T09:40:48.415Z,96782.38
2022-08-16T09:45:54.526Z,96787.78
2022-08-16T09:50:58.697Z,96781.88
2022-08-16T09:56:04.730Z,96785.00
2022-08-16T10:01:16.566Z,96775.34
2022-08-16T10:06:21.623Z,96776.94
2022-08-16T10:11:50.303Z,96777.97
2022-08-16T10:16:59.610Z,96773.75
2022-08-16T10:22:05.883Z,96765.63
2022-08-16T10:27:26.945Z,96772.06
2022-08-16T10:32:35.320Z,96776.84
2022-08-16T10:37:39.029Z,96778.81
2022-08-16T10:42:42.822Z,96784.94
2022-08-16T10:48:00.502Z,96786.66
2022-08-16T10:53:07.773Z,96791.66
2022-08-16T10:58:17.052Z,96785.31
2022-08-16T11:03:42.949Z,96788.53
2022-08-16T11:08:46.482Z,96800.56
2022-08-16T11:14:06.154Z,96797.47
2022-08-16T11:19:17.026Z,96791.09
2022-08-16T11:24:42.598Z,96801.09
2022-08-16T11:29:44.749Z,96781.00
2022-08-16T11:35:10.189Z,96794.19
2022-08-16T11:40:14.595Z,96792.47
2022-08-16T11:45:23.892Z,96801.41
2022-08-16T11:50:33.539Z,96807.13
2022-08-16T11:55:38.970Z,96795.44
2022-08-16T12:00:51.482Z,96793.94
2022-08-16T12:05:57.868Z,96790.63
2022-08-16T12:11:02.365Z,96801.72
2022-08-16T12:16:09.086Z,96799.75
2022-08-16T12:21:14.942Z,96787.84
2022-08-16T12:26:18.720Z,96781.19
2022-08-16T12:31:23.257Z,96782.25
2022-08-16T12:36:29.963Z,96786.63
2022-08-16T12:41:34.915Z,96780.91
2022-08-16T12:46:38.757Z,96781.94
2022-08-16T14:01:01.691Z,96758.81
2022-08-16T14:06:14.183Z,96751.03
2022-08-16T14:16:45.034Z,96746.59
2022-08-16T14:22:13.727Z,96746.78
2022-08-16T14:27:42.371Z,96754.94
2022-08-16T14:38:44.596Z,96755.84
2022-08-16T14:43:56.583Z,96756.50
2022-08-16T14:49:04.718Z,96753.81
2022-08-16T14:54:15.082Z,96760.06
2022-08-16T14:59:19.502Z,96756.19
2022-08-16T15:04:34.364Z,96751.22
2022-08-16T15:10:00.415Z,96744.72
2022-08-16T15:15:13.187Z,96742.31
2022-08-16T15:20:22.348Z,96748.72
2022-08-16T15:25:29.734Z,96747.84
2022-08-16T15:30:59.850Z,96746.34
2022-08-16T15:36:02.363Z,96748.88
2022-08-16T15:41:06.952Z,96752.06
2022-08-16T15:46:34.924Z,96759.88
2022-08-16T15:51:50.668Z,96751.97
2022-08-16T15:57:00.331Z,96750.56
2022-08-16T16:02:08.468Z,96755.50
2022-08-16T16:07:15.768Z,96756.13
2022-08-16T16:12:51.202Z,96756.31
2022-08-16T16:17:50.652Z,96742.53
2022-08-16T16:22:57.971Z,96747.94
2022-08-16T16:28:02.937Z,96740.44
2022-08-16T16:33:22.200Z,96745.72
2022-08-16T16:38:30.984Z,96747.28
2022-08-16T16:43:35.853Z,96747.34
2022-08-16T16:48:39.894Z,96747.97
2022-08-16T16:53:55.739Z,96749.53
2022-08-16T16:59:01.741Z,96754.16
2022-08-16T17:04:13.330Z,96753.47
2022-08-16T17:09:25.147Z,96761.28
2022-08-16T17:14:33.001Z,96768.84
2022-08-16T17:19:40.918Z,96761.06
2022-08-16T17:24:50.214Z,96762.25
2022-08-16T17:29:55.263Z,96757.94
2022-08-16T17:35:03.043Z,96759.41
2022-08-16T17:40:25.801Z,96768.69
2022-08-16T17:45:38.425Z,96769.66
2022-08-16T17:50:43.191Z,96772.53
2022-08-16T17:55:50.518Z,96779.38
2022-08-16T18:00:56.746Z,96786.13
2022-08-16T18:06:00.287Z,96792.19
2022-08-16T18:11:05.395Z,96792.31
2022-08-16T18:16:11.848Z,96793.91
2022-08-16T18:21:33.673Z,96803.59
2022-08-16T18:26:39.838Z,96802.81
2022-08-16T18:31:43.828Z,96813.69
2022-08-16T18:36:47.745Z,96815.31
2022-08-16T18:41:53.055Z,96816.19
2022-08-16T18:46:56.848Z,96816.16
2022-08-16T18:52:01.489Z,96828.56
2022-08-16T18:57:08.085Z,96830.31
2022-08-16T19:02:56.976Z,96846.97
2022-08-16T19:07:35.453Z,96844.50
2022-08-16T19:12:52.372Z,96847.06
2022-08-16T19:17:56.501Z,96843.38
2022-08-16T19:23:06.323Z,96853.34
2022-08-16T19:28:46.672Z,96853.38
2022-08-16T19:33:53.670Z,96856.25
2022-08-16T19:38:58.590Z,96860.38
2022-08-16T19:44:10.996Z,96865.22
2022-08-16T19:49:15.934Z,96865.66
2022-08-16T19:54:20.441Z,96872.38
2022-08-16T19:59:39.340Z,96868.00
2022-08-16T20:04:44.952Z,96880.22
2022-08-16T20:09:49.519Z,96890.09
2022-08-16T20:14:56.167Z,96897.81
2022-08-16T20:20:00.359Z,96899.97
2022-08-16T20:25:07.637Z,96901.41
2022-08-16T20:30:16.779Z,96901.91
2022-08-16T20:35:24.206Z,96902.47
2022-08-16T20:40:35.135Z,96901.44
2022-08-16T20:45:43.048Z,96913.63
2022-08-16T20:50:47.977Z,96922.28
2022-08-16T20:55:51.521Z,96923.34
2022-08-16T21:00:59.688Z,96938.06
2022-08-16T21:06:03.939Z,96925.44
2022-08-16T21:11:08.282Z,96937.63
2022-08-16T21:16:13.061Z,96941.94
2022-08-16T21:21:16.723Z,96952.41
2022-08-16T21:26:20.215Z,96957.75
2022-08-16T21:31:25.294Z,96956.19
2022-08-16T21:36:35.045Z,96957.50
2022-08-16T21:41:39.903Z,96960.06
2022-08-16T21:46:44.914Z,96955.28
2022-08-16T21:51:48.326Z,96949.97
2022-08-16T21:56:51.904Z,96954.06
2022-08-16T22:01:57.056Z,96965.00
2022-08-16T22:07:00.814Z,96958.63
2022-08-16T22:12:05.072Z,96960.47
2022-08-16T22:17:10.308Z,96950.50
2022-08-16T22:22:14.140Z,96949.78
2022-08-16T22:27:17.637Z,96955.00
2022-08-16T22:32:23.113Z,96957.94
2022-08-16T22:37:27.022Z,96955.00
2022-08-16T22:42:30.975Z,96961.75
2022-08-16T22:47:36.079Z,96956.47
2022-08-16T22:53:00.359Z,96950.56
2022-08-16T22:58:05.138Z,96947.97
2022-08-16T23:03:13.568Z,96944.22
2022-08-16T23:08:38.434Z,96955.78
2022-08-16T23:13:49.868Z,96947.34
2022-08-16T23:18:58.899Z,96938.69
2022-08-16T23:24:02.605Z,96947.91
2022-08-16T23:29:22.239Z,96942.53
2022-08-16T23:34:30.129Z,96938.44
2022-08-16T23:39:33.685Z,96939.81
2022-08-16T23:44:56.742Z,96930.56
2022-08-16T23:50:04.006Z,96930.03
2022-08-16T23:55:09.095Z,96933.16
